sensor_id;sensor_type;location;lat;lon;timestamp;P1;durP1;ratioP1;P2;durP2;ratioP2
20609;SDS011;10463;52.378;9.688;2024-01-15T00:01:35;2.60;;;2.07;;
20609;SDS011;10463;52.378;9.688;2024-01-15T00:04:20;2.70;;;2.00;;
20609;SDS011;10463;52.378;9.688;2024-01-15T00:07:05;2.57;;;1.90;;
20609;SDS011;10463;52.378;9.688;2024-01-15T00:09:50;2.47;;;1.63;;
20609;SDS011;10463;52.378;9.688;2024-01-15T00:12:36;2.60;;;2.03;;
20609;SDS011;10463;52.378;9.688;2024-01-15T00:15:20;2.30;;;1.70;;
20609;SDS011;10463;52.378;9.688;2024-01-15T00:18:06;2.83;;;2.03;;
20609;SDS011;10463;52.378;9.688;2024-01-15T00:20:51;2.53;;;1.73;;
20609;SDS011;10463;52.378;9.688;2024-01-15T00:23:35;2.23;;;1.70;;
20609;SDS011;10463;52.378;9.688;2024-01-15T00:26:20;2.70;;;1.60;;
20609;SDS011;10463;52.378;9.688;2024-01-15T00:29:06;2.87;;;2.23;;
20609;SDS011;10463;52.378;9.688;2024-01-15T00:31:50;2.30;;;1.80;;
20609;SDS011;10463;52.378;9.688;2024-01-15T00:34:35;2.97;;;2.10;;
20609;SDS011;10463;52.378;9.688;2024-01-15T00:37:19;3.03;;;1.77;;
20609;SDS011;10463;52.378;9.688;2024-01-15T00:40:05;2.90;;;1.70;;
20609;SDS011;10463;52.378;9.688;2024-01-15T00:42:51;2.17;;;1.50;;
20609;SDS011;10463;52.378;9.688;2024-01-15T00:45:37;2.10;;;1.70;;
20609;SDS011;10463;52.378;9.688;2024-01-15T00:48:22;3.10;;;1.57;;
20609;SDS011;10463;52.378;9.688;2024-01-15T00:51:07;2.17;;;1.60;;
20609;SDS011;10463;52.378;9.688;2024-01-15T00:53:52;2.80;;;1.77;;
20609;SDS011;10463;52.378;9.688;2024-01-15T00:56:36;1.90;;;1.37;;
20609;SDS011;10463;52.378;9.688;2024-01-15T00:59:21;1.90;;;1.40;;
20609;SDS011;10463;52.378;9.688;2024-01-15T01:02:07;2.43;;;1.67;;
20609;SDS011;10463;52.378;9.688;2024-01-15T01:04:52;2.40;;;1.63;;
20609;SDS011;10463;52.378;9.688;2024-01-15T01:07:36;2.30;;;1.40;;
20609;SDS011;10463;52.378;9.688;2024-01-15T01:10:21;3.03;;;2.27;;
20609;SDS011;10463;52.378;9.688;2024-01-15T01:13:06;2.00;;;1.20;;
20609;SDS011;10463;52.378;9.688;2024-01-15T01:15:51;3.20;;;2.00;;
20609;SDS011;10463;52.378;9.688;2024-01-15T01:18:37;1.90;;;1.50;;
20609;SDS011;10463;52.378;9.688;2024-01-15T01:21:21;2.50;;;1.60;;
20609;SDS011;10463;52.378;9.688;2024-01-15T01:24:06;2.93;;;1.73;;
20609;SDS011;10463;52.378;9.688;2024-01-15T01:26:50;3.03;;;1.67;;
20609;SDS011;10463;52.378;9.688;2024-01-15T01:29:35;2.70;;;1.70;;
20609;SDS011;10463;52.378;9.688;2024-01-15T01:32:19;2.30;;;1.60;;
20609;SDS011;10463;52.378;9.688;2024-01-15T01:35:06;2.57;;;1.57;;
20609;SDS011;10463;52.378;9.688;2024-01-15T01:37:50;2.80;;;2.10;;
20609;SDS011;10463;52.378;9.688;2024-01-15T01:40:35;1.90;;;1.20;;
20609;SDS011;10463;52.378;9.688;2024-01-15T01:43:19;2.53;;;1.50;;
20609;SDS011;10463;52.378;9.688;2024-01-15T01:46:04;2.53;;;1.40;;
20609;SDS011;10463;52.378;9.688;2024-01-15T01:48:49;3.30;;;1.67;;
20609;SDS011;10463;52.378;9.688;2024-01-15T01:51:36;2.17;;;1.63;;
20609;SDS011;10463;52.378;9.688;2024-01-15T01:54:23;2.00;;;1.40;;
20609;SDS011;10463;52.378;9.688;2024-01-15T01:57:09;2.53;;;1.57;;
20609;SDS011;10463;52.378;9.688;2024-01-15T01:59:56;2.07;;;1.57;;
20609;SDS011;10463;52.378;9.688;2024-01-15T02:02:41;2.60;;;1.43;;
20609;SDS011;10463;52.378;9.688;2024-01-15T02:05:26;2.60;;;1.70;;
20609;SDS011;10463;52.378;9.688;2024-01-15T02:08:13;2.73;;;1.77;;
20609;SDS011;10463;52.378;9.688;2024-01-15T02:10:58;2.57;;;1.43;;
20609;SDS011;10463;52.378;9.688;2024-01-15T02:13:42;2.20;;;1.90;;
20609;SDS011;10463;52.378;9.688;2024-01-15T02:16:27;2.43;;;1.70;;
20609;SDS011;10463;52.378;9.688;2024-01-15T02:19:15;3.83;;;1.73;;
20609;SDS011;10463;52.378;9.688;2024-01-15T02:22:00;2.63;;;1.50;;
20609;SDS011;10463;52.378;9.688;2024-01-15T02:24:46;2.60;;;1.50;;
20609;SDS011;10463;52.378;9.688;2024-01-15T02:27:31;2.10;;;1.47;;
20609;SDS011;10463;52.378;9.688;2024-01-15T02:30:16;2.30;;;1.57;;
20609;SDS011;10463;52.378;9.688;2024-01-15T02:33:01;2.57;;;1.30;;
20609;SDS011;10463;52.378;9.688;2024-01-15T02:35:46;2.80;;;1.63;;
20609;SDS011;10463;52.378;9.688;2024-01-15T02:38:33;2.00;;;1.30;;
20609;SDS011;10463;52.378;9.688;2024-01-15T02:41:19;2.97;;;1.90;;
20609;SDS011;10463;52.378;9.688;2024-01-15T02:44:04;2.43;;;1.63;;
20609;SDS011;10463;52.378;9.688;2024-01-15T02:46:49;2.23;;;1.20;;
20609;SDS011;10463;52.378;9.688;2024-01-15T02:49:33;2.10;;;1.10;;
20609;SDS011;10463;52.378;9.688;2024-01-15T02:52:18;2.10;;;1.33;;
20609;SDS011;10463;52.378;9.688;2024-01-15T02:55:02;2.50;;;1.60;;
20609;SDS011;10463;52.378;9.688;2024-01-15T02:57:49;3.40;;;1.87;;
20609;SDS011;10463;52.378;9.688;2024-01-15T03:00:33;2.87;;;1.40;;
20609;SDS011;10463;52.378;9.688;2024-01-15T03:03:18;1.93;;;1.13;;
20609;SDS011;10463;52.378;9.688;2024-01-15T03:06:03;2.13;;;1.47;;
20609;SDS011;10463;52.378;9.688;2024-01-15T03:08:48;2.33;;;1.20;;
20609;SDS011;10463;52.378;9.688;2024-01-15T03:11:37;2.60;;;1.43;;
20609;SDS011;10463;52.378;9.688;2024-01-15T03:14:23;1.73;;;1.43;;
20609;SDS011;10463;52.378;9.688;2024-01-15T03:17:10;2.17;;;1.43;;
20609;SDS011;10463;52.378;9.688;2024-01-15T03:19:56;2.50;;;1.50;;
20609;SDS011;10463;52.378;9.688;2024-01-15T03:22:40;2.50;;;1.40;;
20609;SDS011;10463;52.378;9.688;2024-01-15T03:25:25;4.03;;;1.60;;
20609;SDS011;10463;52.378;9.688;2024-01-15T03:28:10;2.00;;;1.20;;
20609;SDS011;10463;52.378;9.688;2024-01-15T03:30:56;2.17;;;1.40;;
20609;SDS011;10463;52.378;9.688;2024-01-15T03:33:40;3.57;;;1.50;;
20609;SDS011;10463;52.378;9.688;2024-01-15T03:36:25;3.00;;;1.10;;
20609;SDS011;10463;52.378;9.688;2024-01-15T03:39:09;3.00;;;1.20;;
20609;SDS011;10463;52.378;9.688;2024-01-15T03:41:54;4.13;;;1.30;;
20609;SDS011;10463;52.378;9.688;2024-01-15T03:44:39;2.47;;;1.33;;
20609;SDS011;10463;52.378;9.688;2024-01-15T03:47:26;2.10;;;1.20;;
20609;SDS011;10463;52.378;9.688;2024-01-15T03:50:10;2.10;;;1.43;;
20609;SDS011;10463;52.378;9.688;2024-01-15T03:52:55;1.80;;;1.00;;
20609;SDS011;10463;52.378;9.688;2024-01-15T03:55:39;1.90;;;1.20;;
20609;SDS011;10463;52.378;9.688;2024-01-15T03:58:24;1.67;;;1.10;;
20609;SDS011;10463;52.378;9.688;2024-01-15T04:01:09;2.40;;;1.00;;
20609;SDS011;10463;52.378;9.688;2024-01-15T04:03:56;2.80;;;1.23;;
20609;SDS011;10463;52.378;9.688;2024-01-15T04:06:40;2.10;;;1.00;;
20609;SDS011;10463;52.378;9.688;2024-01-15T04:09:25;3.17;;;1.03;;
20609;SDS011;10463;52.378;9.688;2024-01-15T04:12:09;1.93;;;1.00;;
20609;SDS011;10463;52.378;9.688;2024-01-15T04:14:54;1.97;;;1.10;;
20609;SDS011;10463;52.378;9.688;2024-01-15T04:17:39;2.97;;;1.20;;
20609;SDS011;10463;52.378;9.688;2024-01-15T04:20:25;1.60;;;0.90;;
20609;SDS011;10463;52.378;9.688;2024-01-15T04:23:09;2.40;;;1.27;;
20609;SDS011;10463;52.378;9.688;2024-01-15T04:25:54;3.10;;;1.20;;
20609;SDS011;10463;52.378;9.688;2024-01-15T04:28:39;2.00;;;1.10;;
20609;SDS011;10463;52.378;9.688;2024-01-15T04:31:24;2.53;;;1.57;;
20609;SDS011;10463;52.378;9.688;2024-01-15T04:34:11;1.97;;;1.03;;
20609;SDS011;10463;52.378;9.688;2024-01-15T04:36:56;1.80;;;0.80;;
20609;SDS011;10463;52.378;9.688;2024-01-15T04:39:41;2.57;;;1.03;;
20609;SDS011;10463;52.378;9.688;2024-01-15T04:42:26;2.60;;;1.10;;
20609;SDS011;10463;52.378;9.688;2024-01-15T04:45:11;3.97;;;1.20;;
20609;SDS011;10463;52.378;9.688;2024-01-15T04:47:55;1.67;;;0.90;;
20609;SDS011;10463;52.378;9.688;2024-01-15T04:50:41;2.03;;;1.10;;
20609;SDS011;10463;52.378;9.688;2024-01-15T04:53:27;1.80;;;0.97;;
20609;SDS011;10463;52.378;9.688;2024-01-15T04:56:12;2.60;;;1.13;;
20609;SDS011;10463;52.378;9.688;2024-01-15T04:58:56;1.50;;;0.80;;
20609;SDS011;10463;52.378;9.688;2024-01-15T05:01:41;1.60;;;1.10;;
20609;SDS011;10463;52.378;9.688;2024-01-15T05:04:26;1.80;;;1.10;;
20609;SDS011;10463;52.378;9.688;2024-01-15T05:07:10;2.07;;;0.83;;
20609;SDS011;10463;52.378;9.688;2024-01-15T05:09:56;1.93;;;0.80;;
20609;SDS011;10463;52.378;9.688;2024-01-15T05:12:41;2.53;;;1.10;;
20609;SDS011;10463;52.378;9.688;2024-01-15T05:15:25;2.43;;;1.17;;
20609;SDS011;10463;52.378;9.688;2024-01-15T05:18:10;1.53;;;0.90;;
20609;SDS011;10463;52.378;9.688;2024-01-15T05:20:54;1.70;;;0.80;;
20609;SDS011;10463;52.378;9.688;2024-01-15T05:23:39;3.63;;;1.20;;
20609;SDS011;10463;52.378;9.688;2024-01-15T05:26:25;2.80;;;1.20;;
20609;SDS011;10463;52.378;9.688;2024-01-15T05:29:10;2.30;;;0.90;;
20609;SDS011;10463;52.378;9.688;2024-01-15T05:31:54;1.50;;;0.80;;
20609;SDS011;10463;52.378;9.688;2024-01-15T05:34:39;1.67;;;0.80;;
20609;SDS011;10463;52.378;9.688;2024-01-15T05:37:23;1.43;;;0.80;;
20609;SDS011;10463;52.378;9.688;2024-01-15T05:40:08;1.43;;;0.80;;
20609;SDS011;10463;52.378;9.688;2024-01-15T05:42:56;2.63;;;0.90;;
20609;SDS011;10463;52.378;9.688;2024-01-15T05:45:42;1.57;;;0.80;;
20609;SDS011;10463;52.378;9.688;2024-01-15T05:48:28;1.70;;;1.00;;
20609;SDS011;10463;52.378;9.688;2024-01-15T05:51:13;1.80;;;0.93;;
20609;SDS011;10463;52.378;9.688;2024-01-15T05:53:57;1.70;;;1.10;;
20609;SDS011;10463;52.378;9.688;2024-01-15T05:56:42;1.93;;;1.03;;
20609;SDS011;10463;52.378;9.688;2024-01-15T05:59:28;1.63;;;0.80;;
20609;SDS011;10463;52.378;9.688;2024-01-15T06:02:16;2.23;;;1.00;;
20609;SDS011;10463;52.378;9.688;2024-01-15T06:05:00;2.23;;;1.10;;
20609;SDS011;10463;52.378;9.688;2024-01-15T06:07:47;1.93;;;0.80;;
20609;SDS011;10463;52.378;9.688;2024-01-15T06:10:31;1.90;;;1.00;;
20609;SDS011;10463;52.378;9.688;2024-01-15T06:13:16;2.27;;;0.70;;
20609;SDS011;10463;52.378;9.688;2024-01-15T06:16:02;1.50;;;0.80;;
20609;SDS011;10463;52.378;9.688;2024-01-15T06:18:55;1.70;;;1.00;;
20609;SDS011;10463;52.378;9.688;2024-01-15T06:21:40;1.60;;;0.80;;
20609;SDS011;10463;52.378;9.688;2024-01-15T06:24:24;1.77;;;0.90;;
20609;SDS011;10463;52.378;9.688;2024-01-15T06:27:09;1.70;;;0.90;;
20609;SDS011;10463;52.378;9.688;2024-01-15T06:29:53;1.70;;;0.90;;
20609;SDS011;10463;52.378;9.688;2024-01-15T06:32:41;2.97;;;1.10;;
20609;SDS011;10463;52.378;9.688;2024-01-15T06:35:26;1.80;;;0.93;;
20609;SDS011;10463;52.378;9.688;2024-01-15T06:38:10;1.70;;;0.87;;
20609;SDS011;10463;52.378;9.688;2024-01-15T06:40:55;1.60;;;0.70;;
20609;SDS011;10463;52.378;9.688;2024-01-15T06:43:39;2.33;;;1.10;;
20609;SDS011;10463;52.378;9.688;2024-01-15T06:46:24;1.50;;;0.80;;
20609;SDS011;10463;52.378;9.688;2024-01-15T06:49:10;1.90;;;0.90;;
20609;SDS011;10463;52.378;9.688;2024-01-15T06:51:55;2.23;;;0.90;;
20609;SDS011;10463;52.378;9.688;2024-01-15T06:54:40;1.40;;;0.70;;
20609;SDS011;10463;52.378;9.688;2024-01-15T06:57:24;1.63;;;0.93;;
20609;SDS011;10463;52.378;9.688;2024-01-15T07:00:10;2.57;;;0.90;;
20609;SDS011;10463;52.378;9.688;2024-01-15T07:02:55;1.83;;;0.70;;
20609;SDS011;10463;52.378;9.688;2024-01-15T07:05:41;1.97;;;0.70;;
20609;SDS011;10463;52.378;9.688;2024-01-15T07:08:26;1.77;;;0.97;;
20609;SDS011;10463;52.378;9.688;2024-01-15T07:11:10;1.63;;;0.90;;
20609;SDS011;10463;52.378;9.688;2024-01-15T07:13:56;1.57;;;0.80;;
20609;SDS011;10463;52.378;9.688;2024-01-15T07:16:40;3.00;;;1.00;;
20609;SDS011;10463;52.378;9.688;2024-01-15T07:19:25;2.40;;;1.10;;
20609;SDS011;10463;52.378;9.688;2024-01-15T07:22:11;2.03;;;0.90;;
20609;SDS011;10463;52.378;9.688;2024-01-15T07:24:55;2.50;;;1.17;;
20609;SDS011;10463;52.378;9.688;2024-01-15T07:27:40;1.60;;;0.90;;
20609;SDS011;10463;52.378;9.688;2024-01-15T07:30:28;1.50;;;0.90;;
20609;SDS011;10463;52.378;9.688;2024-01-15T07:33:12;1.90;;;1.10;;
20609;SDS011;10463;52.378;9.688;2024-01-15T07:35:57;2.13;;;0.97;;
20609;SDS011;10463;52.378;9.688;2024-01-15T07:38:43;2.80;;;1.00;;
20609;SDS011;10463;52.378;9.688;2024-01-15T07:41:27;2.27;;;1.30;;
20609;SDS011;10463;52.378;9.688;2024-01-15T07:44:12;1.53;;;0.90;;
20609;SDS011;10463;52.378;9.688;2024-01-15T07:46:56;1.63;;;1.00;;
20609;SDS011;10463;52.378;9.688;2024-01-15T07:49:41;2.20;;;1.10;;
20609;SDS011;10463;52.378;9.688;2024-01-15T07:52:25;2.17;;;1.10;;
20609;SDS011;10463;52.378;9.688;2024-01-15T07:55:12;2.03;;;1.33;;
20609;SDS011;10463;52.378;9.688;2024-01-15T07:57:57;1.83;;;1.00;;
20609;SDS011;10463;52.378;9.688;2024-01-15T08:00:43;2.30;;;1.40;;
20609;SDS011;10463;52.378;9.688;2024-01-15T08:03:28;2.80;;;1.30;;
20609;SDS011;10463;52.378;9.688;2024-01-15T08:06:12;2.30;;;1.37;;
20609;SDS011;10463;52.378;9.688;2024-01-15T08:08:57;1.70;;;1.30;;
20609;SDS011;10463;52.378;9.688;2024-01-15T08:11:44;2.50;;;1.40;;
20609;SDS011;10463;52.378;9.688;2024-01-15T08:14:29;4.20;;;1.53;;
20609;SDS011;10463;52.378;9.688;2024-01-15T08:17:13;2.97;;;1.43;;
20609;SDS011;10463;52.378;9.688;2024-01-15T08:19:59;3.47;;;1.63;;
20609;SDS011;10463;52.378;9.688;2024-01-15T08:22:45;2.07;;;1.37;;
20609;SDS011;10463;52.378;9.688;2024-01-15T08:25:31;2.80;;;1.30;;
20609;SDS011;10463;52.378;9.688;2024-01-15T08:28:17;2.90;;;1.63;;
20609;SDS011;10463;52.378;9.688;2024-01-15T08:31:01;2.40;;;1.47;;
20609;SDS011;10463;52.378;9.688;2024-01-15T08:33:46;3.37;;;1.50;;
20609;SDS011;10463;52.378;9.688;2024-01-15T08:36:31;2.07;;;1.70;;
20609;SDS011;10463;52.378;9.688;2024-01-15T08:39:16;2.47;;;1.50;;
20609;SDS011;10463;52.378;9.688;2024-01-15T08:42:03;2.00;;;1.40;;
20609;SDS011;10463;52.378;9.688;2024-01-15T08:44:50;2.70;;;1.80;;
20609;SDS011;10463;52.378;9.688;2024-01-15T08:47:35;3.13;;;2.27;;
20609;SDS011;10463;52.378;9.688;2024-01-15T08:50:19;2.70;;;1.80;;
20609;SDS011;10463;52.378;9.688;2024-01-15T08:53:04;3.53;;;2.30;;
20609;SDS011;10463;52.378;9.688;2024-01-15T08:55:49;2.37;;;1.33;;
20609;SDS011;10463;52.378;9.688;2024-01-15T08:58:34;2.50;;;1.63;;
20609;SDS011;10463;52.378;9.688;2024-01-15T09:01:20;2.63;;;1.70;;
20609;SDS011;10463;52.378;9.688;2024-01-15T09:04:07;3.60;;;1.80;;
20609;SDS011;10463;52.378;9.688;2024-01-15T09:06:51;2.87;;;1.80;;
20609;SDS011;10463;52.378;9.688;2024-01-15T09:09:36;3.00;;;1.80;;
20609;SDS011;10463;52.378;9.688;2024-01-15T09:12:20;2.67;;;1.80;;
20609;SDS011;10463;52.378;9.688;2024-01-15T09:15:06;2.77;;;1.57;;
20609;SDS011;10463;52.378;9.688;2024-01-15T09:17:53;3.30;;;2.17;;
20609;SDS011;10463;52.378;9.688;2024-01-15T09:20:38;3.60;;;2.07;;
20609;SDS011;10463;52.378;9.688;2024-01-15T09:23:23;2.50;;;1.60;;
20609;SDS011;10463;52.378;9.688;2024-01-15T09:26:08;3.20;;;2.10;;
20609;SDS011;10463;52.378;9.688;2024-01-15T09:28:53;2.43;;;1.50;;
20609;SDS011;10463;52.378;9.688;2024-01-15T09:31:37;3.00;;;1.40;;
20609;SDS011;10463;52.378;9.688;2024-01-15T09:34:23;3.17;;;1.63;;
20609;SDS011;10463;52.378;9.688;2024-01-15T09:37:08;2.83;;;1.47;;
20609;SDS011;10463;52.378;9.688;2024-01-15T09:39:53;2.00;;;1.37;;
20609;SDS011;10463;52.378;9.688;2024-01-15T09:42:39;2.57;;;1.70;;
20609;SDS011;10463;52.378;9.688;2024-01-15T09:45:25;2.47;;;1.60;;
20609;SDS011;10463;52.378;9.688;2024-01-15T09:48:10;2.57;;;1.40;;
20609;SDS011;10463;52.378;9.688;2024-01-15T09:50:56;2.67;;;1.77;;
20609;SDS011;10463;52.378;9.688;2024-01-15T09:53:42;3.40;;;1.97;;
20609;SDS011;10463;52.378;9.688;2024-01-15T09:56:28;2.23;;;1.70;;
20609;SDS011;10463;52.378;9.688;2024-01-15T09:59:14;2.50;;;1.63;;
20609;SDS011;10463;52.378;9.688;2024-01-15T10:01:59;2.50;;;1.80;;
20609;SDS011;10463;52.378;9.688;2024-01-15T10:04:45;3.27;;;2.00;;
20609;SDS011;10463;52.378;9.688;2024-01-15T10:07:31;3.20;;;1.70;;
20609;SDS011;10463;52.378;9.688;2024-01-15T10:10:19;3.13;;;1.77;;
20609;SDS011;10463;52.378;9.688;2024-01-15T10:13:06;2.43;;;1.90;;
20609;SDS011;10463;52.378;9.688;2024-01-15T10:15:51;3.83;;;2.50;;
20609;SDS011;10463;52.378;9.688;2024-01-15T10:18:37;2.97;;;2.13;;
20609;SDS011;10463;52.378;9.688;2024-01-15T10:21:24;3.40;;;2.17;;
20609;SDS011;10463;52.378;9.688;2024-01-15T10:24:11;3.20;;;2.20;;
20609;SDS011;10463;52.378;9.688;2024-01-15T10:27:04;3.23;;;1.73;;
20609;SDS011;10463;52.378;9.688;2024-01-15T10:29:50;2.13;;;1.50;;
20609;SDS011;10463;52.378;9.688;2024-01-15T10:32:35;3.30;;;2.10;;
20609;SDS011;10463;52.378;9.688;2024-01-15T10:35:21;2.73;;;1.60;;
20609;SDS011;10463;52.378;9.688;2024-01-15T10:38:06;4.00;;;2.00;;
20609;SDS011;10463;52.378;9.688;2024-01-15T10:40:52;2.83;;;1.70;;
20609;SDS011;10463;52.378;9.688;2024-01-15T10:43:37;3.00;;;2.07;;
20609;SDS011;10463;52.378;9.688;2024-01-15T10:46:25;3.10;;;2.10;;
20609;SDS011;10463;52.378;9.688;2024-01-15T10:49:09;3.20;;;1.97;;
20609;SDS011;10463;52.378;9.688;2024-01-15T10:51:55;2.00;;;1.30;;
20609;SDS011;10463;52.378;9.688;2024-01-15T10:54:40;2.83;;;2.07;;
20609;SDS011;10463;52.378;9.688;2024-01-15T10:57:28;2.83;;;2.00;;
20609;SDS011;10463;52.378;9.688;2024-01-15T11:00:14;2.67;;;1.90;;
20609;SDS011;10463;52.378;9.688;2024-01-15T11:02:59;3.03;;;2.20;;
20609;SDS011;10463;52.378;9.688;2024-01-15T11:05:45;3.90;;;1.93;;
20609;SDS011;10463;52.378;9.688;2024-01-15T11:08:31;3.27;;;1.93;;
20609;SDS011;10463;52.378;9.688;2024-01-15T11:11:16;3.30;;;1.83;;
20609;SDS011;10463;52.378;9.688;2024-01-15T11:14:02;2.33;;;1.80;;
20609;SDS011;10463;52.378;9.688;2024-01-15T11:16:54;2.33;;;1.70;;
20609;SDS011;10463;52.378;9.688;2024-01-15T11:19:46;2.30;;;1.60;;
20609;SDS011;10463;52.378;9.688;2024-01-15T11:22:48;2.47;;;1.77;;
20609;SDS011;10463;52.378;9.688;2024-01-15T11:25:34;2.40;;;1.43;;
20609;SDS011;10463;52.378;9.688;2024-01-15T11:28:49;2.23;;;1.57;;
20609;SDS011;10463;52.378;9.688;2024-01-15T11:32:00;2.83;;;1.50;;
20609;SDS011;10463;52.378;9.688;2024-01-15T11:34:56;2.93;;;2.00;;
20609;SDS011;10463;52.378;9.688;2024-01-15T11:37:56;2.63;;;1.80;;
20609;SDS011;10463;52.378;9.688;2024-01-15T11:40:42;2.30;;;1.70;;
20609;SDS011;10463;52.378;9.688;2024-01-15T11:43:31;3.90;;;1.93;;
20609;SDS011;10463;52.378;9.688;2024-01-15T11:46:17;2.90;;;1.60;;
20609;SDS011;10463;52.378;9.688;2024-01-15T11:49:04;2.13;;;1.47;;
20609;SDS011;10463;52.378;9.688;2024-01-15T11:51:50;3.23;;;2.37;;
20609;SDS011;10463;52.378;9.688;2024-01-15T11:54:37;2.90;;;1.63;;
20609;SDS011;10463;52.378;9.688;2024-01-15T11:57:28;3.00;;;1.80;;
20609;SDS011;10463;52.378;9.688;2024-01-15T12:00:22;3.33;;;2.10;;
20609;SDS011;10463;52.378;9.688;2024-01-15T12:03:06;2.87;;;2.10;;
20609;SDS011;10463;52.378;9.688;2024-01-15T12:05:53;3.23;;;2.20;;
20609;SDS011;10463;52.378;9.688;2024-01-15T12:08:38;2.77;;;1.77;;
20609;SDS011;10463;52.378;9.688;2024-01-15T12:11:23;4.77;;;2.60;;
20609;SDS011;10463;52.378;9.688;2024-01-15T12:14:10;2.67;;;1.97;;
20609;SDS011;10463;52.378;9.688;2024-01-15T12:16:55;3.30;;;2.10;;
20609;SDS011;10463;52.378;9.688;2024-01-15T12:19:39;3.73;;;2.43;;
20609;SDS011;10463;52.378;9.688;2024-01-15T12:22:25;2.67;;;2.03;;
20609;SDS011;10463;52.378;9.688;2024-01-15T12:25:11;3.20;;;2.30;;
20609;SDS011;10463;52.378;9.688;2024-01-15T12:27:56;3.27;;;2.30;;
20609;SDS011;10463;52.378;9.688;2024-01-15T12:30:42;3.20;;;2.20;;
20609;SDS011;10463;52.378;9.688;2024-01-15T12:33:33;5.80;;;2.50;;
20609;SDS011;10463;52.378;9.688;2024-01-15T12:36:20;2.93;;;2.10;;
20609;SDS011;10463;52.378;9.688;2024-01-15T12:39:11;3.47;;;2.07;;
20609;SDS011;10463;52.378;9.688;2024-01-15T12:41:56;2.67;;;1.77;;
20609;SDS011;10463;52.378;9.688;2024-01-15T12:44:41;2.50;;;1.80;;
20609;SDS011;10463;52.378;9.688;2024-01-15T12:47:25;4.03;;;2.27;;
20609;SDS011;10463;52.378;9.688;2024-01-15T12:50:11;5.73;;;2.80;;
20609;SDS011;10463;52.378;9.688;2024-01-15T12:52:56;4.60;;;2.30;;
20609;SDS011;10463;52.378;9.688;2024-01-15T12:55:44;3.97;;;2.80;;
20609;SDS011;10463;52.378;9.688;2024-01-15T12:58:29;3.97;;;2.50;;
20609;SDS011;10463;52.378;9.688;2024-01-15T13:01:13;3.47;;;2.43;;
20609;SDS011;10463;52.378;9.688;2024-01-15T13:03:58;4.77;;;2.90;;
20609;SDS011;10463;52.378;9.688;2024-01-15T13:06:44;4.27;;;3.20;;
20609;SDS011;10463;52.378;9.688;2024-01-15T13:09:29;4.50;;;2.90;;
20609;SDS011;10463;52.378;9.688;2024-01-15T13:12:14;3.57;;;3.07;;
20609;SDS011;10463;52.378;9.688;2024-01-15T13:14:59;4.70;;;3.63;;
20609;SDS011;10463;52.378;9.688;2024-01-15T13:17:44;3.30;;;2.93;;
20609;SDS011;10463;52.378;9.688;2024-01-15T13:20:28;4.60;;;3.00;;
20609;SDS011;10463;52.378;9.688;2024-01-15T13:23:13;4.37;;;3.03;;
20609;SDS011;10463;52.378;9.688;2024-01-15T13:25:57;4.97;;;2.80;;
20609;SDS011;10463;52.378;9.688;2024-01-15T13:28:43;4.80;;;3.23;;
20609;SDS011;10463;52.378;9.688;2024-01-15T13:31:28;4.60;;;3.30;;
20609;SDS011;10463;52.378;9.688;2024-01-15T13:34:12;4.73;;;3.30;;
20609;SDS011;10463;52.378;9.688;2024-01-15T13:36:58;5.43;;;3.57;;
20609;SDS011;10463;52.378;9.688;2024-01-15T13:39:42;4.43;;;3.47;;
20609;SDS011;10463;52.378;9.688;2024-01-15T13:42:27;6.70;;;4.10;;
20609;SDS011;10463;52.378;9.688;2024-01-15T13:45:13;4.30;;;3.30;;
20609;SDS011;10463;52.378;9.688;2024-01-15T13:47:58;5.13;;;3.33;;
20609;SDS011;10463;52.378;9.688;2024-01-15T13:50:43;5.07;;;3.67;;
20609;SDS011;10463;52.378;9.688;2024-01-15T13:53:28;4.67;;;2.83;;
20609;SDS011;10463;52.378;9.688;2024-01-15T13:56:13;4.70;;;2.97;;
20609;SDS011;10463;52.378;9.688;2024-01-15T13:58:58;4.10;;;3.00;;
20609;SDS011;10463;52.378;9.688;2024-01-15T14:01:44;4.13;;;3.43;;
20609;SDS011;10463;52.378;9.688;2024-01-15T14:04:31;4.83;;;3.30;;
20609;SDS011;10463;52.378;9.688;2024-01-15T14:07:15;4.47;;;3.23;;
20609;SDS011;10463;52.378;9.688;2024-01-15T14:10:00;5.03;;;3.13;;
20609;SDS011;10463;52.378;9.688;2024-01-15T14:12:44;4.03;;;2.87;;
20609;SDS011;10463;52.378;9.688;2024-01-15T14:15:29;4.40;;;3.27;;
20609;SDS011;10463;52.378;9.688;2024-01-15T14:18:16;3.83;;;2.93;;
20609;SDS011;10463;52.378;9.688;2024-01-15T14:21:00;3.97;;;2.63;;
20609;SDS011;10463;52.378;9.688;2024-01-15T14:23:45;4.70;;;3.50;;
20609;SDS011;10463;52.378;9.688;2024-01-15T14:26:29;4.57;;;3.17;;
20609;SDS011;10463;52.378;9.688;2024-01-15T14:29:14;4.57;;;3.20;;
20609;SDS011;10463;52.378;9.688;2024-01-15T14:31:58;4.33;;;2.93;;
20609;SDS011;10463;52.378;9.688;2024-01-15T14:34:44;4.17;;;3.00;;
20609;SDS011;10463;52.378;9.688;2024-01-15T14:37:29;4.23;;;2.97;;
20609;SDS011;10463;52.378;9.688;2024-01-15T14:40:13;3.93;;;3.27;;
20609;SDS011;10463;52.378;9.688;2024-01-15T14:43:02;3.57;;;2.87;;
20609;SDS011;10463;52.378;9.688;2024-01-15T14:45:47;2.97;;;2.40;;
20609;SDS011;10463;52.378;9.688;2024-01-15T14:48:32;5.17;;;3.03;;
20609;SDS011;10463;52.378;9.688;2024-01-15T14:51:18;4.90;;;2.90;;
20609;SDS011;10463;52.378;9.688;2024-01-15T14:54:02;3.30;;;2.60;;
20609;SDS011;10463;52.378;9.688;2024-01-15T14:56:47;4.07;;;3.03;;
20609;SDS011;10463;52.378;9.688;2024-01-15T14:59:32;3.30;;;2.27;;
20609;SDS011;10463;52.378;9.688;2024-01-15T15:02:17;3.23;;;2.57;;
20609;SDS011;10463;52.378;9.688;2024-01-15T15:05:02;3.40;;;2.47;;
20609;SDS011;10463;52.378;9.688;2024-01-15T15:07:48;3.20;;;2.40;;
20609;SDS011;10463;52.378;9.688;2024-01-15T15:10:33;3.10;;;2.77;;
20609;SDS011;10463;52.378;9.688;2024-01-15T15:13:18;3.63;;;2.70;;
20609;SDS011;10463;52.378;9.688;2024-01-15T15:16:03;3.60;;;2.60;;
20609;SDS011;10463;52.378;9.688;2024-01-15T15:18:48;4.00;;;2.63;;
20609;SDS011;10463;52.378;9.688;2024-01-15T15:21:32;2.83;;;2.30;;
20609;SDS011;10463;52.378;9.688;2024-01-15T15:24:18;4.10;;;2.80;;
20609;SDS011;10463;52.378;9.688;2024-01-15T15:27:03;4.17;;;2.77;;
20609;SDS011;10463;52.378;9.688;2024-01-15T15:29:49;3.40;;;2.40;;
20609;SDS011;10463;52.378;9.688;2024-01-15T15:32:34;3.33;;;2.43;;
20609;SDS011;10463;52.378;9.688;2024-01-15T15:35:19;3.00;;;2.07;;
20609;SDS011;10463;52.378;9.688;2024-01-15T15:38:03;4.10;;;2.50;;
20609;SDS011;10463;52.378;9.688;2024-01-15T15:40:49;2.90;;;2.10;;
20609;SDS011;10463;52.378;9.688;2024-01-15T15:43:34;3.77;;;2.57;;
20609;SDS011;10463;52.378;9.688;2024-01-15T15:46:18;3.23;;;2.67;;
20609;SDS011;10463;52.378;9.688;2024-01-15T15:49:03;3.13;;;1.90;;
20609;SDS011;10463;52.378;9.688;2024-01-15T15:51:50;3.00;;;2.10;;
20609;SDS011;10463;52.378;9.688;2024-01-15T15:54:35;3.17;;;2.10;;
20609;SDS011;10463;52.378;9.688;2024-01-15T15:57:21;3.30;;;2.10;;
20609;SDS011;10463;52.378;9.688;2024-01-15T16:00:07;3.67;;;2.43;;
20609;SDS011;10463;52.378;9.688;2024-01-15T16:02:56;3.03;;;1.90;;
20609;SDS011;10463;52.378;9.688;2024-01-15T16:05:40;3.60;;;2.57;;
20609;SDS011;10463;52.378;9.688;2024-01-15T16:08:25;3.40;;;1.83;;
20609;SDS011;10463;52.378;9.688;2024-01-15T16:11:09;3.23;;;1.80;;
20609;SDS011;10463;52.378;9.688;2024-01-15T16:13:55;3.13;;;2.03;;
20609;SDS011;10463;52.378;9.688;2024-01-15T16:16:39;4.07;;;2.80;;
20609;SDS011;10463;52.378;9.688;2024-01-15T16:19:24;3.57;;;2.67;;
20609;SDS011;10463;52.378;9.688;2024-01-15T16:22:09;4.07;;;2.67;;
20609;SDS011;10463;52.378;9.688;2024-01-15T16:24:55;3.57;;;2.60;;
20609;SDS011;10463;52.378;9.688;2024-01-15T16:27:40;5.10;;;3.63;;
20609;SDS011;10463;52.378;9.688;2024-01-15T16:30:27;4.90;;;3.50;;
20609;SDS011;10463;52.378;9.688;2024-01-15T16:33:12;5.17;;;4.17;;
20609;SDS011;10463;52.378;9.688;2024-01-15T16:35:57;5.10;;;3.30;;
20609;SDS011;10463;52.378;9.688;2024-01-15T16:38:41;4.47;;;3.50;;